sensor_id;sensor_type;location;lat;lon;timestamp;P1;durP1;ratioP1;P2;durP2;ratioP2
42198;SDS011;27868;45.184;5.786;2023-03-13T00:00:53;5.25;;;2.75;;
42198;SDS011;27868;45.184;5.786;2023-03-13T00:03:39;4.82;;;2.50;;
42198;SDS011;27868;45.184;5.786;2023-03-13T00:06:25;4.13;;;2.38;;
42198;SDS011;27868;45.184;5.786;2023-03-13T00:09:15;4.40;;;2.78;;
42198;SDS011;27868;45.184;5.786;2023-03-13T00:12:00;4.68;;;2.80;;
42198;SDS011;27868;45.184;5.786;2023-03-13T00:14:44;4.97;;;2.90;;
42198;SDS011;27868;45.184;5.786;2023-03-13T00:17:29;4.90;;;2.40;;
42198;SDS011;27868;45.184;5.786;2023-03-13T00:20:13;4.13;;;2.60;;
42198;SDS011;27868;45.184;5.786;2023-03-13T00:23:00;4.40;;;2.80;;
42198;SDS011;27868;45.184;5.786;2023-03-13T00:25:44;6.50;;;2.78;;
42198;SDS011;27868;45.184;5.786;2023-03-13T00:28:29;4.43;;;2.38;;
42198;SDS011;27868;45.184;5.786;2023-03-13T00:31:16;3.70;;;2.28;;
42198;SDS011;27868;45.184;5.786;2023-03-13T00:34:02;4.07;;;2.10;;
42198;SDS011;27868;45.184;5.786;2023-03-13T00:36:47;4.22;;;1.98;;
42198;SDS011;27868;45.184;5.786;2023-03-13T00:39:31;3.72;;;1.65;;
42198;SDS011;27868;45.184;5.786;2023-03-13T00:42:16;3.15;;;1.75;;
42198;SDS011;27868;45.184;5.786;2023-03-13T00:45:01;3.60;;;2.30;;
42198;SDS011;27868;45.184;5.786;2023-03-13T00:47:46;4.78;;;2.58;;
42198;SDS011;27868;45.184;5.786;2023-03-13T00:50:33;5.40;;;2.40;;
42198;SDS011;27868;45.184;5.786;2023-03-13T00:53:17;5.57;;;1.95;;
42198;SDS011;27868;45.184;5.786;2023-03-13T00:56:03;4.53;;;1.98;;
42198;SDS011;27868;45.184;5.786;2023-03-13T00:58:50;2.58;;;1.95;;
42198;SDS011;27868;45.184;5.786;2023-03-13T01:01:35;4.43;;;2.30;;
42198;SDS011;27868;45.184;5.786;2023-03-13T01:04:20;5.13;;;2.67;;
42198;SDS011;27868;45.184;5.786;2023-03-13T01:07:05;5.93;;;2.90;;
42198;SDS011;27868;45.184;5.786;2023-03-13T01:09:49;4.85;;;2.85;;
42198;SDS011;27868;45.184;5.786;2023-03-13T01:12:35;4.07;;;2.45;;
42198;SDS011;27868;45.184;5.786;2023-03-13T01:15:20;5.20;;;2.33;;
42198;SDS011;27868;45.184;5.786;2023-03-13T01:18:04;5.20;;;2.67;;
42198;SDS011;27868;45.184;5.786;2023-03-13T01:20:49;5.88;;;2.53;;
42198;SDS011;27868;45.184;5.786;2023-03-13T01:23:33;4.55;;;2.00;;
42198;SDS011;27868;45.184;5.786;2023-03-13T01:26:18;3.40;;;1.80;;
42198;SDS011;27868;45.184;5.786;2023-03-13T01:29:03;4.55;;;2.15;;
42198;SDS011;27868;45.184;5.786;2023-03-13T01:31:48;7.05;;;2.20;;
42198;SDS011;27868;45.184;5.786;2023-03-13T01:34:33;4.78;;;2.40;;
42198;SDS011;27868;45.184;5.786;2023-03-13T01:37:18;4.25;;;2.40;;
42198;SDS011;27868;45.184;5.786;2023-03-13T01:40:02;6.05;;;3.13;;
42198;SDS011;27868;45.184;5.786;2023-03-13T01:42:51;5.68;;;2.88;;
42198;SDS011;27868;45.184;5.786;2023-03-13T01:51:51;6.53;;;2.90;;
42198;SDS011;27868;45.184;5.786;2023-03-13T01:57:29;3.88;;;3.10;;
42198;SDS011;27868;45.184;5.786;2023-03-13T02:00:20;7.82;;;3.30;;
42198;SDS011;27868;45.184;5.786;2023-03-13T02:03:10;7.85;;;3.50;;
42198;SDS011;27868;45.184;5.786;2023-03-13T02:05:58;4.82;;;3.20;;
42198;SDS011;27868;45.184;5.786;2023-03-13T02:09:02;5.50;;;3.58;;
42198;SDS011;27868;45.184;5.786;2023-03-13T02:11:52;7.70;;;3.90;;
42198;SDS011;27868;45.184;5.786;2023-03-13T02:15:13;6.20;;;4.20;;
42198;SDS011;27868;45.184;5.786;2023-03-13T02:17:59;8.30;;;4.40;;
42198;SDS011;27868;45.184;5.786;2023-03-13T02:20:45;10.48;;;5.20;;
42198;SDS011;27868;45.184;5.786;2023-03-13T02:23:34;7.18;;;3.63;;
42198;SDS011;27868;45.184;5.786;2023-03-13T02:26:28;10.35;;;3.75;;
42198;SDS011;27868;45.184;5.786;2023-03-13T02:29:12;6.70;;;3.00;;
42198;SDS011;27868;45.184;5.786;2023-03-13T02:32:01;6.85;;;3.15;;
42198;SDS011;27868;45.184;5.786;2023-03-13T02:34:46;6.35;;;3.80;;
42198;SDS011;27868;45.184;5.786;2023-03-13T02:37:34;7.43;;;3.85;;
42198;SDS011;27868;45.184;5.786;2023-03-13T02:40:20;6.05;;;4.20;;
42198;SDS011;27868;45.184;5.786;2023-03-13T02:46:24;6.57;;;3.83;;
42198;SDS011;27868;45.184;5.786;2023-03-13T02:49:19;6.38;;;3.78;;
42198;SDS011;27868;45.184;5.786;2023-03-13T02:52:49;6.20;;;3.70;;
42198;SDS011;27868;45.184;5.786;2023-03-13T02:58:09;5.15;;;3.17;;
42198;SDS011;27868;45.184;5.786;2023-03-13T03:00:53;4.95;;;3.40;;
42198;SDS011;27868;45.184;5.786;2023-03-13T03:03:38;6.80;;;3.13;;
42198;SDS011;27868;45.184;5.786;2023-03-13T03:06:23;5.35;;;2.40;;
42198;SDS011;27868;45.184;5.786;2023-03-13T03:09:08;4.60;;;2.40;;
42198;SDS011;27868;45.184;5.786;2023-03-13T03:11:53;3.38;;;1.90;;
42198;SDS011;27868;45.184;5.786;2023-03-13T03:14:37;6.68;;;1.98;;
42198;SDS011;27868;45.184;5.786;2023-03-13T03:17:23;4.18;;;1.70;;
42198;SDS011;27868;45.184;5.786;2023-03-13T03:20:07;3.45;;;1.95;;
42198;SDS011;27868;45.184;5.786;2023-03-13T03:22:55;5.68;;;2.42;;
42198;SDS011;27868;45.184;5.786;2023-03-13T03:25:39;5.45;;;2.55;;
42198;SDS011;27868;45.184;5.786;2023-03-13T03:28:23;4.32;;;2.53;;
42198;SDS011;27868;45.184;5.786;2023-03-13T03:31:09;5.35;;;3.00;;
42198;SDS011;27868;45.184;5.786;2023-03-13T03:33:55;5.30;;;2.90;;
42198;SDS011;27868;45.184;5.786;2023-03-13T03:36:40;5.32;;;3.08;;
42198;SDS011;27868;45.184;5.786;2023-03-13T03:39:25;5.07;;;2.95;;
42198;SDS011;27868;45.184;5.786;2023-03-13T03:42:09;6.00;;;3.72;;
42198;SDS011;27868;45.184;5.786;2023-03-13T03:44:54;5.53;;;3.50;;
42198;SDS011;27868;45.184;5.786;2023-03-13T03:47:39;5.40;;;3.50;;
42198;SDS011;27868;45.184;5.786;2023-03-13T03:50:27;7.90;;;4.00;;
42198;SDS011;27868;45.184;5.786;2023-03-13T03:53:11;5.70;;;4.03;;
42198;SDS011;27868;45.184;5.786;2023-03-13T03:55:56;5.90;;;3.92;;
42198;SDS011;27868;45.184;5.786;2023-03-13T03:58:41;6.75;;;3.80;;
42198;SDS011;27868;45.184;5.786;2023-03-13T04:01:26;5.28;;;3.80;;
42198;SDS011;27868;45.184;5.786;2023-03-13T04:04:10;6.38;;;3.50;;
42198;SDS011;27868;45.184;5.786;2023-03-13T04:06:55;4.82;;;3.35;;
42198;SDS011;27868;45.184;5.786;2023-03-13T04:09:39;6.68;;;3.38;;
42198;SDS011;27868;45.184;5.786;2023-03-13T04:12:24;5.60;;;3.60;;
42198;SDS011;27868;45.184;5.786;2023-03-13T04:15:09;5.30;;;3.20;;
42198;SDS011;27868;45.184;5.786;2023-03-13T04:17:54;5.53;;;3.20;;
42198;SDS011;27868;45.184;5.786;2023-03-13T04:20:39;5.13;;;3.22;;
42198;SDS011;27868;45.184;5.786;2023-03-13T04:23:23;4.95;;;3.40;;
42198;SDS011;27868;45.184;5.786;2023-03-13T04:26:08;7.15;;;2.83;;
42198;SDS011;27868;45.184;5.786;2023-03-13T04:28:52;5.75;;;3.10;;
42198;SDS011;27868;45.184;5.786;2023-03-13T04:31:37;5.53;;;2.95;;
42198;SDS011;27868;45.184;5.786;2023-03-13T04:34:21;4.68;;;2.38;;
42198;SDS011;27868;45.184;5.786;2023-03-13T04:37:05;5.57;;;2.70;;
42198;SDS011;27868;45.184;5.786;2023-03-13T04:39:50;4.47;;;2.70;;
42198;SDS011;27868;45.184;5.786;2023-03-13T04:42:36;5.43;;;2.70;;
42198;SDS011;27868;45.184;5.786;2023-03-13T04:45:20;5.35;;;2.70;;
42198;SDS011;27868;45.184;5.786;2023-03-13T04:48:06;4.05;;;2.65;;
42198;SDS011;27868;45.184;5.786;2023-03-13T04:50:50;4.07;;;2.47;;
42198;SDS011;27868;45.184;5.786;2023-03-13T04:53:35;4.18;;;2.63;;
42198;SDS011;27868;45.184;5.786;2023-03-13T04:56:23;6.78;;;2.45;;
42198;SDS011;27868;45.184;5.786;2023-03-13T05:01:54;3.70;;;2.30;;
42198;SDS011;27868;45.184;5.786;2023-03-13T05:04:39;5.18;;;2.60;;
42198;SDS011;27868;45.184;5.786;2023-03-13T05:07:23;5.10;;;2.50;;
42198;SDS011;27868;45.184;5.786;2023-03-13T05:10:08;7.05;;;2.72;;
42198;SDS011;27868;45.184;5.786;2023-03-13T05:12:52;4.32;;;2.60;;
42198;SDS011;27868;45.184;5.786;2023-03-13T05:15:37;6.13;;;2.80;;
42198;SDS011;27868;45.184;5.786;2023-03-13T05:18:21;3.63;;;2.28;;
42198;SDS011;27868;45.184;5.786;2023-03-13T05:21:06;3.90;;;2.58;;
42198;SDS011;27868;45.184;5.786;2023-03-13T05:23:51;10.15;;;3.00;;
42198;SDS011;27868;45.184;5.786;2023-03-13T05:26:36;4.68;;;2.70;;
42198;SDS011;27868;45.184;5.786;2023-03-13T05:29:20;3.47;;;2.30;;
42198;SDS011;27868;45.184;5.786;2023-03-13T05:32:06;5.68;;;2.40;;
42198;SDS011;27868;45.184;5.786;2023-03-13T05:34:50;3.85;;;2.40;;
42198;SDS011;27868;45.184;5.786;2023-03-13T05:37:35;4.47;;;2.10;;
42198;SDS011;27868;45.184;5.786;2023-03-13T05:40:19;3.55;;;2.20;;
42198;SDS011;27868;45.184;5.786;2023-03-13T05:43:04;4.32;;;2.10;;
42198;SDS011;27868;45.184;5.786;2023-03-13T05:45:49;4.47;;;1.98;;
42198;SDS011;27868;45.184;5.786;2023-03-13T05:48:34;6.70;;;2.00;;
42198;SDS011;27868;45.184;5.786;2023-03-13T05:51:19;3.13;;;1.92;;
42198;SDS011;27868;45.184;5.786;2023-03-13T05:54:04;4.03;;;1.52;;
42198;SDS011;27868;45.184;5.786;2023-03-13T05:56:49;2.15;;;1.30;;
42198;SDS011;27868;45.184;5.786;2023-03-13T05:59:34;3.00;;;1.35;;
42198;SDS011;27868;45.184;5.786;2023-03-13T06:02:19;2.30;;;1.20;;
42198;SDS011;27868;45.184;5.786;2023-03-13T06:05:04;4.03;;;1.50;;
42198;SDS011;27868;45.184;5.786;2023-03-13T06:07:49;3.00;;;1.48;;
42198;SDS011;27868;45.184;5.786;2023-03-13T06:10:34;2.05;;;1.40;;
42198;SDS011;27868;45.184;5.786;2023-03-13T06:13:19;3.83;;;1.50;;
42198;SDS011;27868;45.184;5.786;2023-03-13T06:16:04;2.60;;;1.30;;
42198;SDS011;27868;45.184;5.786;2023-03-13T06:18:49;2.40;;;1.33;;
42198;SDS011;27868;45.184;5.786;2023-03-13T06:21:34;4.25;;;1.40;;
42198;SDS011;27868;45.184;5.786;2023-03-13T06:24:19;3.22;;;1.10;;
42198;SDS011;27868;45.184;5.786;2023-03-13T06:27:04;4.60;;;1.02;;
42198;SDS011;27868;45.184;5.786;2023-03-13T06:29:50;5.43;;;1.15;;
42198;SDS011;27868;45.184;5.786;2023-03-13T06:32:34;3.70;;;1.30;;
42198;SDS011;27868;45.184;5.786;2023-03-13T06:35:19;1.88;;;1.20;;
42198;SDS011;27868;45.184;5.786;2023-03-13T06:38:04;2.08;;;1.15;;
42198;SDS011;27868;45.184;5.786;2023-03-13T06:40:48;3.20;;;1.20;;
42198;SDS011;27868;45.184;5.786;2023-03-13T06:43:33;4.70;;;1.95;;
42198;SDS011;27868;45.184;5.786;2023-03-13T06:46:19;3.45;;;1.67;;
42198;SDS011;27868;45.184;5.786;2023-03-13T06:49:05;3.40;;;1.45;;
42198;SDS011;27868;45.184;5.786;2023-03-13T06:51:50;2.55;;;1.23;;
42198;SDS011;27868;45.184;5.786;2023-03-13T06:54:34;4.05;;;1.38;;
42198;SDS011;27868;45.184;5.786;2023-03-13T06:57:20;2.50;;;1.25;;
42198;SDS011;27868;45.184;5.786;2023-03-13T07:00:04;1.60;;;1.10;;
42198;SDS011;27868;45.184;5.786;2023-03-13T07:02:50;1.88;;;1.20;;
42198;SDS011;27868;45.184;5.786;2023-03-13T07:05:35;2.22;;;1.23;;
42198;SDS011;27868;45.184;5.786;2023-03-13T07:08:20;3.15;;;1.60;;
42198;SDS011;27868;45.184;5.786;2023-03-13T07:11:06;4.30;;;1.30;;
42198;SDS011;27868;45.184;5.786;2023-03-13T07:13:55;6.15;;;1.17;;
42198;SDS011;27868;45.184;5.786;2023-03-13T07:16:40;10.00;;;2.05;;
42198;SDS011;27868;45.184;5.786;2023-03-13T07:19:25;5.43;;;1.70;;
42198;SDS011;27868;45.184;5.786;2023-03-13T07:22:10;3.60;;;1.80;;
42198;SDS011;27868;45.184;5.786;2023-03-13T07:24:55;4.65;;;1.88;;
42198;SDS011;27868;45.184;5.786;2023-03-13T07:27:40;5.47;;;2.00;;
42198;SDS011;27868;45.184;5.786;2023-03-13T07:30:24;4.07;;;1.90;;
42198;SDS011;27868;45.184;5.786;2023-03-13T07:33:09;5.22;;;2.10;;
42198;SDS011;27868;45.184;5.786;2023-03-13T07:35:53;2.67;;;1.80;;
42198;SDS011;27868;45.184;5.786;2023-03-13T07:38:38;4.70;;;2.50;;
42198;SDS011;27868;45.184;5.786;2023-03-13T07:41:22;4.47;;;2.15;;
42198;SDS011;27868;45.184;5.786;2023-03-13T07:44:07;5.32;;;2.20;;
42198;SDS011;27868;45.184;5.786;2023-03-13T07:46:52;3.80;;;2.05;;
42198;SDS011;27868;45.184;5.786;2023-03-13T07:49:36;3.65;;;1.60;;
42198;SDS011;27868;45.184;5.786;2023-03-13T07:52:25;5.82;;;1.92;;
42198;SDS011;27868;45.184;5.786;2023-03-13T07:55:11;3.42;;;1.85;;
42198;SDS011;27868;45.184;5.786;2023-03-13T07:57:55;3.60;;;2.08;;
42198;SDS011;27868;45.184;5.786;2023-03-13T08:00:39;6.00;;;1.85;;
42198;SDS011;27868;45.184;5.786;2023-03-13T08:03:24;4.57;;;2.10;;
42198;SDS011;27868;45.184;5.786;2023-03-13T08:06:11;4.93;;;2.08;;
42198;SDS011;27868;45.184;5.786;2023-03-13T08:08:57;2.97;;;1.70;;
42198;SDS011;27868;45.184;5.786;2023-03-13T08:11:42;4.28;;;2.00;;
42198;SDS011;27868;45.184;5.786;2023-03-13T08:14:30;5.50;;;2.17;;
42198;SDS011;27868;45.184;5.786;2023-03-13T08:17:15;5.20;;;2.03;;
42198;SDS011;27868;45.184;5.786;2023-03-13T08:19:59;3.58;;;1.90;;
42198;SDS011;27868;45.184;5.786;2023-03-13T08:22:44;4.80;;;2.08;;
42198;SDS011;27868;45.184;5.786;2023-03-13T08:25:33;8.15;;;2.80;;
42198;SDS011;27868;45.184;5.786;2023-03-13T08:28:17;4.40;;;2.47;;
42198;SDS011;27868;45.184;5.786;2023-03-13T08:31:06;3.03;;;2.10;;
42198;SDS011;27868;45.184;5.786;2023-03-13T08:33:51;5.53;;;2.40;;
42198;SDS011;27868;45.184;5.786;2023-03-13T08:36:35;5.38;;;2.38;;
42198;SDS011;27868;45.184;5.786;2023-03-13T08:39:20;5.03;;;2.47;;
42198;SDS011;27868;45.184;5.786;2023-03-13T08:42:06;4.32;;;2.30;;
42198;SDS011;27868;45.184;5.786;2023-03-13T08:44:54;5.57;;;2.58;;
42198;SDS011;27868;45.184;5.786;2023-03-13T08:47:38;3.78;;;2.03;;
42198;SDS011;27868;45.184;5.786;2023-03-13T08:50:23;3.67;;;2.10;;
42198;SDS011;27868;45.184;5.786;2023-03-13T08:53:07;4.28;;;2.10;;
42198;SDS011;27868;45.184;5.786;2023-03-13T08:55:52;3.80;;;1.83;;
42198;SDS011;27868;45.184;5.786;2023-03-13T08:58:37;4.70;;;2.15;;
42198;SDS011;27868;45.184;5.786;2023-03-13T09:01:23;5.50;;;2.38;;
42198;SDS011;27868;45.184;5.786;2023-03-13T09:04:09;6.53;;;3.13;;
42198;SDS011;27868;45.184;5.786;2023-03-13T09:06:53;6.75;;;3.17;;
42198;SDS011;27868;45.184;5.786;2023-03-13T09:09:38;6.03;;;3.35;;
42198;SDS011;27868;45.184;5.786;2023-03-13T09:12:23;7.35;;;3.20;;
42198;SDS011;27868;45.184;5.786;2023-03-13T09:15:07;7.53;;;3.92;;
42198;SDS011;27868;45.184;5.786;2023-03-13T09:17:52;10.23;;;4.20;;
42198;SDS011;27868;45.184;5.786;2023-03-13T09:20:37;8.70;;;3.13;;
42198;SDS011;27868;45.184;5.786;2023-03-13T09:23:23;6.47;;;3.38;;
42198;SDS011;27868;45.184;5.786;2023-03-13T09:26:07;5.40;;;3.30;;
42198;SDS011;27868;45.184;5.786;2023-03-13T09:28:52;5.88;;;3.00;;
42198;SDS011;27868;45.184;5.786;2023-03-13T09:31:38;9.43;;;2.90;;
42198;SDS011;27868;45.184;5.786;2023-03-13T09:34:23;5.88;;;2.80;;
42198;SDS011;27868;45.184;5.786;2023-03-13T09:37:08;6.97;;;2.55;;
42198;SDS011;27868;45.184;5.786;2023-03-13T09:39:53;3.83;;;2.20;;
42198;SDS011;27868;45.184;5.786;2023-03-13T09:42:48;2.90;;;1.80;;
42198;SDS011;27868;45.184;5.786;2023-03-13T09:45:39;4.88;;;2.50;;
42198;SDS011;27868;45.184;5.786;2023-03-13T09:48:33;5.18;;;2.53;;
42198;SDS011;27868;45.184;5.786;2023-03-13T09:51:31;5.50;;;1.70;;
42198;SDS011;27868;45.184;5.786;2023-03-13T09:54:25;7.32;;;2.10;;
42198;SDS011;27868;45.184;5.786;2023-03-13T10:00:26;5.35;;;3.03;;
42198;SDS011;27868;45.184;5.786;2023-03-13T10:03:24;4.13;;;2.20;;
42198;SDS011;27868;45.184;5.786;2023-03-13T10:06:14;2.65;;;1.40;;
42198;SDS011;27868;45.184;5.786;2023-03-13T10:09:04;3.78;;;1.48;;
42198;SDS011;27868;45.184;5.786;2023-03-13T10:12:02;2.83;;;1.40;;
42198;SDS011;27868;45.184;5.786;2023-03-13T10:17:47;2.25;;;1.10;;
42198;SDS011;27868;45.184;5.786;2023-03-13T10:20:33;2.63;;;1.55;;
42198;SDS011;27868;45.184;5.786;2023-03-13T10:26:32;2.40;;;1.10;;
42198;SDS011;27868;45.184;5.786;2023-03-13T10:29:23;2.15;;;1.10;;
42198;SDS011;27868;45.184;5.786;2023-03-13T10:32:14;2.00;;;1.08;;
42198;SDS011;27868;45.184;5.786;2023-03-13T10:35:00;2.22;;;1.27;;
42198;SDS011;27868;45.184;5.786;2023-03-13T10:37:46;3.15;;;1.10;;
42198;SDS011;27868;45.184;5.786;2023-03-13T10:40:31;4.32;;;1.40;;
42198;SDS011;27868;45.184;5.786;2023-03-13T10:43:17;2.35;;;1.30;;
42198;SDS011;27868;45.184;5.786;2023-03-13T10:46:03;2.78;;;1.25;;
42198;SDS011;27868;45.184;5.786;2023-03-13T10:48:49;4.03;;;1.40;;
42198;SDS011;27868;45.184;5.786;2023-03-13T10:51:38;5.93;;;1.50;;
42198;SDS011;27868;45.184;5.786;2023-03-13T10:54:24;2.53;;;1.10;;
42198;SDS011;27868;45.184;5.786;2023-03-13T11:00:44;15.48;;;1.98;;
42198;SDS011;27868;45.184;5.786;2023-03-13T11:03:25;6.90;;;1.77;;
42198;SDS011;27868;45.184;5.786;2023-03-13T11:06:30;3.08;;;1.10;;
42198;SDS011;27868;45.184;5.786;2023-03-13T11:09:18;3.88;;;1.20;;
42198;SDS011;27868;45.184;5.786;2023-03-13T11:12:03;6.13;;;1.58;;
42198;SDS011;27868;45.184;5.786;2023-03-13T11:14:57;5.40;;;1.70;;
42198;SDS011;27868;45.184;5.786;2023-03-13T11:17:43;2.25;;;1.13;;
42198;SDS011;27868;45.184;5.786;2023-03-13T11:20:35;2.58;;;1.38;;
42198;SDS011;27868;45.184;5.786;2023-03-13T11:23:29;5.65;;;1.40;;
42198;SDS011;27868;45.184;5.786;2023-03-13T11:29:15;1.88;;;1.15;;
42198;SDS011;27868;45.184;5.786;2023-03-13T11:32:08;3.67;;;1.52;;
42198;SDS011;27868;45.184;5.786;2023-03-13T11:35:36;2.50;;;1.27;;
42198;SDS011;27868;45.184;5.786;2023-03-13T11:38:53;3.67;;;1.13;;
42198;SDS011;27868;45.184;5.786;2023-03-13T11:47:33;3.60;;;1.13;;
42198;SDS011;27868;45.184;5.786;2023-03-13T11:54:21;3.13;;;1.00;;
42198;SDS011;27868;45.184;5.786;2023-03-13T12:06:23;0.90;;;0.73;;
42198;SDS011;27868;45.184;5.786;2023-03-13T12:09:24;1.98;;;0.80;;
42198;SDS011;27868;45.184;5.786;2023-03-13T12:21:20;2.92;;;0.60;;
42198;SDS011;27868;45.184;5.786;2023-03-13T12:24:31;1.85;;;0.50;;
42198;SDS011;27868;45.184;5.786;2023-03-13T12:27:32;1.42;;;0.60;;
42198;SDS011;27868;45.184;5.786;2023-03-13T12:33:38;2.80;;;0.68;;
42198;SDS011;27868;45.184;5.786;2023-03-13T12:36:37;0.82;;;0.47;;
42198;SDS011;27868;45.184;5.786;2023-03-13T12:49:16;2.67;;;0.57;;
42198;SDS011;27868;45.184;5.786;2023-03-13T12:59:10;0.63;;;0.30;;
42198;SDS011;27868;45.184;5.786;2023-03-13T13:02:14;2.15;;;0.20;;
42198;SDS011;27868;45.184;5.786;2023-03-13T13:05:02;0.30;;;0.20;;
42198;SDS011;27868;45.184;5.786;2023-03-13T13:07:53;2.60;;;0.40;;
42198;SDS011;27868;45.184;5.786;2023-03-13T13:10:39;0.73;;;0.30;;
42198;SDS011;27868;45.184;5.786;2023-03-13T13:13:28;1.42;;;0.25;;
42198;SDS011;27868;45.184;5.786;2023-03-13T13:16:17;2.25;;;0.30;;
42198;SDS011;27868;45.184;5.786;2023-03-13T13:34:06;0.73;;;0.22;;
42198;SDS011;27868;45.184;5.786;2023-03-13T13:36:51;0.57;;;0.20;;
42198;SDS011;27868;45.184;5.786;2023-03-13T13:39:47;6.88;;;0.30;;
42198;SDS011;27868;45.184;5.786;2023-03-13T13:42:37;0.47;;;0.20;;
42198;SDS011;27868;45.184;5.786;2023-03-13T13:56:59;0.73;;;0.25;;
42198;SDS011;27868;45.184;5.786;2023-03-13T13:59:51;0.45;;;0.30;;
42198;SDS011;27868;45.184;5.786;2023-03-13T14:02:47;1.08;;;0.30;;
42198;SDS011;27868;45.184;5.786;2023-03-13T14:05:39;0.50;;;0.20;;
42198;SDS011;27868;45.184;5.786;2023-03-13T14:08:32;1.23;;;0.20;;
42198;SDS011;27868;45.184;5.786;2023-03-13T14:11:32;0.40;;;0.10;;
42198;SDS011;27868;45.184;5.786;2023-03-13T14:14:21;0.82;;;0.30;;
42198;SDS011;27868;45.184;5.786;2023-03-13T14:17:07;0.52;;;0.20;;
42198;SDS011;27868;45.184;5.786;2023-03-13T14:19:52;2.88;;;0.40;;
42198;SDS011;27868;45.184;5.786;2023-03-13T14:22:44;0.65;;;0.20;;
42198;SDS011;27868;45.184;5.786;2023-03-13T14:25:46;1.65;;;0.20;;
42198;SDS011;27868;45.184;5.786;2023-03-13T14:28:32;0.80;;;0.30;;
42198;SDS011;27868;45.184;5.786;2023-03-13T14:31:24;1.40;;;0.30;;
42198;SDS011;27868;45.184;5.786;2023-03-13T14:34:16;0.98;;;0.40;;
42198;SDS011;27868;45.184;5.786;2023-03-13T14:37:01;0.68;;;0.45;;
42198;SDS011;27868;45.184;5.786;2023-03-13T14:39:47;0.28;;;0.20;;
42198;SDS011;27868;45.184;5.786;2023-03-13T14:42:36;0.93;;;0.40;;
42198;SDS011;27868;45.184;5.786;2023-03-13T14:45:32;0.75;;;0.30;;
42198;SDS011;27868;45.184;5.786;2023-03-13T14:48:21;0.50;;;0.47;;
42198;SDS011;27868;45.184;5.786;2023-03-13T14:51:16;1.75;;;0.35;;
42198;SDS011;27868;45.184;5.786;2023-03-13T14:54:19;0.85;;;0.30;;
42198;SDS011;27868;45.184;5.786;2023-03-13T14:57:18;0.47;;;0.30;;
42198;SDS011;27868;45.184;5.786;2023-03-13T15:00:27;0.52;;;0.30;;
42198;SDS011;27868;45.184;5.786;2023-03-13T15:03:26;0.82;;;0.47;;
42198;SDS011;27868;45.184;5.786;2023-03-13T15:06:16;33.72;;;1.27;;
42198;SDS011;27868;45.184;5.786;2023-03-13T15:12:19;2.08;;;0.40;;
42198;SDS011;27868;45.184;5.786;2023-03-13T15:15:07;0.90;;;0.30;;
42198;SDS011;27868;45.184;5.786;2023-03-13T15:17:53;0.65;;;0.28;;
42198;SDS011;27868;45.184;5.786;2023-03-13T15:20:37;0.75;;;0.30;;
42198;SDS011;27868;45.184;5.786;2023-03-13T15:23:22;0.73;;;0.45;;
42198;SDS011;27868;45.184;5.786;2023-03-13T15:26:07;0.30;;;0.20;;
42198;SDS011;27868;45.184;5.786;2023-03-13T15:28:51;0.82;;;0.40;;
42198;SDS011;27868;45.184;5.786;2023-03-13T15:31:36;1.65;;;0.30;;
42198;SDS011;27868;45.184;5.786;2023-03-13T15:34:23;0.60;;;0.40;;
42198;SDS011;27868;45.184;5.786;2023-03-13T15:37:10;0.80;;;0.40;;
42198;SDS011;27868;45.184;5.786;2023-03-13T15:39:56;2.05;;;0.35;;
42198;SDS011;27868;45.184;5.786;2023-03-13T15:42:42;1.25;;;0.40;;
42198;SDS011;27868;45.184;5.786;2023-03-13T15:45:26;4.30;;;0.43;;
42198;SDS011;27868;45.184;5.786;2023-03-13T15:50:56;1.17;;;0.50;;
42198;SDS011;27868;45.184;5.786;2023-03-13T15:53:43;1.35;;;0.50;;
42198;SDS011;27868;45.184;5.786;2023-03-13T15:56:29;1.58;;;0.30;;
42198;SDS011;27868;45.184;5.786;2023-03-13T15:59:19;2.88;;;0.35;;
42198;SDS011;27868;45.184;5.786;2023-03-13T16:02:08;2.33;;;0.40;;
42198;SDS011;27868;45.184;5.786;2023-03-13T16:05:00;0.30;;;0.30;;
42198;SDS011;27868;45.184;5.786;2023-03-13T16:07:45;0.32;;;0.30;;
42198;SDS011;27868;45.184;5.786;2023-03-13T16:10:30;0.90;;;0.40;;
42198;SDS011;27868;45.184;5.786;2023-03-13T16:13:16;1.73;;;0.60;;
42198;SDS011;27868;45.184;5.786;2023-03-13T16:16:01;3.00;;;0.50;;
42198;SDS011;27868;45.184;5.786;2023-03-13T16:18:49;1.05;;;0.40;;
42198;SDS011;27868;45.184;5.786;2023-03-13T16:21:35;6.57;;;0.60;;
42198;SDS011;27868;45.184;5.786;2023-03-13T16:24:23;0.88;;;0.40;;
42198;SDS011;27868;45.184;5.786;2023-03-13T16:27:15;1.70;;;0.40;;
42198;SDS011;27868;45.184;5.786;2023-03-13T16:30:01;1.08;;;0.40;;
42198;SDS011;27868;45.184;5.786;2023-03-13T16:32:47;2.03;;;0.50;;
42198;SDS011;27868;45.184;5.786;2023-03-13T16:35:32;1.85;;;0.40;;
42198;SDS011;27868;45.184;5.786;2023-03-13T16:38:17;0.80;;;0.40;;
42198;SDS011;27868;45.184;5.786;2023-03-13T16:41:04;0.60;;;0.40;;
42198;SDS011;27868;45.184;5.786;2023-03-13T16:43:49;2.50;;;0.50;;
42198;SDS011;27868;45.184;5.786;2023-03-13T16:46:35;1.95;;;0.40;;
42198;SDS011;27868;45.184;5.786;2023-03-13T16:49:24;0.82;;;0.35;;
42198;SDS011;27868;45.184;5.786;2023-03-13T16:52:12;2.38;;;0.60;;
42198;SDS011;27868;45.184;5.786;2023-03-13T16:54:58;3.10;;;0.50;;
42198;SDS011;27868;45.184;5.786;2023-03-13T16:57:42;2.28;;;0.50;;
42198;SDS011;27868;45.184;5.786;2023-03-13T17:00:28;2.25;;;0.85;;
42198;SDS011;27868;45.184;5.786;2023-03-13T17:03:14;3.50;;;0.57;;
42198;SDS011;27868;45.184;5.786;2023-03-13T17:05:59;3.15;;;0.57;;
42198;SDS011;27868;45.184;5.786;2023-03-13T17:08:43;0.60;;;0.40;;
42198;SDS011;27868;45.184;5.786;2023-03-13T17:11:29;1.20;;;0.50;;
42198;SDS011;27868;45.184;5.786;2023-03-13T17:14:13;2.03;;;0.60;;
42198;SDS011;27868;45.184;5.786;2023-03-13T17:16:58;3.28;;;0.70;;
42198;SDS011;27868;45.184;5.786;2023-03-13T17:19:43;0.93;;;0.50;;
42198;SDS011;27868;45.184;5.786;2023-03-13T17:22:29;0.80;;;0.50;;
42198;SDS011;27868;45.184;5.786;2023-03-13T17:25:13;2.50;;;0.70;;
42198;SDS011;27868;45.184;5.786;2023-03-13T17:27:58;0.88;;;0.40;;
42198;SDS011;27868;45.184;5.786;2023-03-13T17:30:43;1.58;;;0.50;;
42198;SDS011;27868;45.184;5.786;2023-03-13T17:33:28;1.08;;;0.40;;
42198;SDS011;27868;45.184;5.786;2023-03-13T17:36:13;1.15;;;0.70;;
42198;SDS011;27868;45.184;5.786;2023-03-13T17:38:59;1.63;;;0.60;;
42198;SDS011;27868;45.184;5.786;2023-03-13T17:41:45;0.98;;;0.50;;
42198;SDS011;27868;45.184;5.786;2023-03-13T17:44:29;2.53;;;0.90;;
42198;SDS011;27868;45.184;5.786;2023-03-13T17:47:15;1.10;;;0.60;;
42198;SDS011;27868;45.184;5.786;2023-03-13T17:50:14;2.03;;;0.60;;
42198;SDS011;27868;45.184;5.786;2023-03-13T17:53:00;1.38;;;0.50;;
42198;SDS011;27868;45.184;5.786;2023-03-13T17:55:45;0.98;;;0.60;;
42198;SDS011;27868;45.184;5.786;2023-03-13T17:58:29;0.80;;;0.50;;
42198;SDS011;27868;45.184;5.786;2023-03-13T18:01:15;0.98;;;0.50;;
42198;SDS011;27868;45.184;5.786;2023-03-13T18:04:02;1.05;;;0.70;;
42198;SDS011;27868;45.184;5.786;2023-03-13T18:06:47;1.27;;;0.57;;
42198;SDS011;27868;45.184;5.786;2023-03-13T18:09:33;0.90;;;0.55;;
42198;SDS011;27868;45.184;5.786;2023-03-13T18:12:18;2.63;;;0.50;;
42198;SDS011;27868;45.184;5.786;2023-03-13T18:15:03;1.67;;;0.73;;
42198;SDS011;27868;45.184;5.786;2023-03-13T18:17:48;1.45;;;0.80;;
42198;SDS011;27868;45.184;5.786;2023-03-13T18:20:34;3.67;;;1.73;;
42198;SDS011;27868;45.184;5.786;2023-03-13T18:23:19;3.17;;;1.30;;
42198;SDS011;27868;45.184;5.786;2023-03-13T18:26:37;2.70;;;1.80;;
42198;SDS011;27868;45.184;5.786;2023-03-13T18:29:23;4.22;;;2.03;;
42198;SDS011;27868;45.184;5.786;2023-03-13T18:32:12;4.80;;;2.22;;
42198;SDS011;27868;45.184;5.786;2023-03-13T18:35:00;2.38;;;1.10;;
42198;SDS011;27868;45.184;5.786;2023-03-13T18:37:45;1.30;;;0.80;;
42198;SDS011;27868;45.184;5.786;2023-03-13T18:40:31;0.82;;;0.60;;
42198;SDS011;27868;45.184;5.786;2023-03-13T18:43:16;0.90;;;0.47;;